Ty Dolese — WDH7645 — position and weather

sailwx.info

Track history (hours):
 
Tides and Currents Weather Stations Pressure Air Temp Water Temp Dewpoint Dewpoint Depression Visibility Wind Speed Wind Dir Waves Ship Positions

Ty Dolese

Owner: Florida Marine, LLC, Mandeville, LA. More information available from US FCC via Universal Licensing System and Coast Guard Vessel Documentation Center.

Last reported at 2018-Jun-25 03:07 UTC. Time now 2018-Jun-25 13:53 UTC.
Position N 32°46' W 091°10'.

Length 27 m; draft 2.9 m.

Type: Other ship. MMSI: 367650190.

Date/timePositionNaut miles runAvg speedWind from/ knotsBaromVisibWave heightAir tempDewpointWater temp
2018-Jun-25 03:07N 32°46' W 091°10'1 4.4
2018-Jun-25 03:00N 32°46' W 091°10'8 2.7
2018-Jun-24 23:51N 32°37' W 091°09'2 5.0
2018-Jun-24 23:30N 32°36' W 091°08'2 4.7
2018-Jun-24 23:00N 32°34' W 091°06'2 4.4
2018-Jun-24 22:30N 32°32' W 091°06'3 5.4
2018-Jun-24 22:00N 32°29' W 091°07'2 4.8
2018-Jun-24 21:30N 32°27' W 091°05'2 4.7
2018-Jun-24 21:00N 32°26' W 091°03'2 4.7
2018-Jun-24 20:30N 32°25' W 091°00'2 4.0
2018-Jun-24 20:00N 32°23' W 090°60'2 4.1
2018-Jun-24 19:30N 32°21' W 091°00'2 4.4
2018-Jun-24 19:00N 32°21' W 090°58'2 4.4
2018-Jun-24 18:30N 32°20' W 090°55'2 3.8
2018-Jun-24 18:00N 32°19' W 090°55'2 4.4
2018-Jun-24 17:30N 32°17' W 090°57'2 4.2
2018-Jun-24 17:00N 32°16' W 090°58'2 4.2
2018-Jun-24 16:30N 32°14' W 090°59'2 4.6
2018-Jun-24 16:00N 32°11' W 090°60'2 4.2
2018-Jun-24 15:30N 32°09' W 091°00'2 4.1
2018-Jun-24 14:59N 32°07' W 091°01'4 4.3
2018-Jun-24 14:07N 32°08' W 091°06'1 4.8
2018-Jun-24 14:00N 32°07' W 091°06'5 4.7
2018-Jun-24 13:01N 32°03' W 091°04'1 4.5
2018-Jun-24 12:53N 32°03' W 091°04'19 4.2
2018-Jun-24 08:14N 31°50' W 091°21'1 3.7
2018-Jun-24 07:57N 31°49' W 091°21'  
2018-Jun-17 22:10N 31°59' W 091°06'2 9.1
2018-Jun-17 22:00N 32°01' W 091°05'5 8.3
2018-Jun-17 21:23N 32°06' W 091°05'2 6.4
2018-Jun-17 21:00N 32°08' W 091°05'4 8.0
2018-Jun-17 20:29N 32°09' W 091°00'5 9.6
2018-Jun-17 19:59N 32°14' W 090°59'5 9.6
2018-Jun-17 19:30N 32°17' W 090°56'3 6.3
2018-Jun-17 19:00N 32°20' W 090°55'3 6.5
2018-Jun-17 18:30N 32°21' W 090°59'4 7.5
2018-Jun-17 18:00N 32°25' W 090°60'5 9.3
2018-Jun-17 17:30N 32°27' W 091°05'5 8.3
2018-Jun-17 16:57N 32°31' W 091°06'4 8.8
2018-Jun-17 16:30N 32°35' W 091°07'  
Track history (hours):
 
Tides and Currents Weather Stations Pressure Air Temp Water Temp Dewpoint Dewpoint Depression Visibility Wind Speed Wind Dir Waves Ship Positions

Ty Dolese

Owner: Florida Marine, LLC, Mandeville, LA. More information available from US FCC via Universal Licensing System and Coast Guard Vessel Documentation Center.

Last reported at 2018-Jun-25 03:07 UTC. Time now 2018-Jun-25 13:53 UTC.
Position N 32°46' W 091°10'.

Length 27 m; draft 2.9 m.

Type: Other ship. MMSI: 367650190.

Date/timePositionNaut miles runAvg speedWind from/ knotsBaromVisibWave heightAir tempDewpointWater temp
2018-Jun-25 03:07N 32°46' W 091°10'1 4.4
2018-Jun-25 03:00N 32°46' W 091°10'8 2.7
2018-Jun-24 23:51N 32°37' W 091°09'2 5.0
2018-Jun-24 23:30N 32°36' W 091°08'2 4.7
2018-Jun-24 23:00N 32°34' W 091°06'2 4.4
2018-Jun-24 22:30N 32°32' W 091°06'3 5.4
2018-Jun-24 22:00N 32°29' W 091°07'2 4.8
2018-Jun-24 21:30N 32°27' W 091°05'2 4.7
2018-Jun-24 21:00N 32°26' W 091°03'2 4.7
2018-Jun-24 20:30N 32°25' W 091°00'2 4.0
2018-Jun-24 20:00N 32°23' W 090°60'2 4.1
2018-Jun-24 19:30N 32°21' W 091°00'2 4.4
2018-Jun-24 19:00N 32°21' W 090°58'2 4.4
2018-Jun-24 18:30N 32°20' W 090°55'2 3.8
2018-Jun-24 18:00N 32°19' W 090°55'2 4.4
2018-Jun-24 17:30N 32°17' W 090°57'2 4.2
2018-Jun-24 17:00N 32°16' W 090°58'2 4.2
2018-Jun-24 16:30N 32°14' W 090°59'2 4.6
2018-Jun-24 16:00N 32°11' W 090°60'2 4.2
2018-Jun-24 15:30N 32°09' W 091°00'2 4.1
2018-Jun-24 14:59N 32°07' W 091°01'4 4.3
2018-Jun-24 14:07N 32°08' W 091°06'1 4.8
2018-Jun-24 14:00N 32°07' W 091°06'5 4.7
2018-Jun-24 13:01N 32°03' W 091°04'1 4.5
2018-Jun-24 12:53N 32°03' W 091°04'19 4.2
2018-Jun-24 08:14N 31°50' W 091°21'1 3.7
2018-Jun-24 07:57N 31°49' W 091°21'  
2018-Jun-17 22:10N 31°59' W 091°06'2 9.1
2018-Jun-17 22:00N 32°01' W 091°05'5 8.3
2018-Jun-17 21:23N 32°06' W 091°05'2 6.4
2018-Jun-17 21:00N 32°08' W 091°05'4 8.0
2018-Jun-17 20:29N 32°09' W 091°00'5 9.6
2018-Jun-17 19:59N 32°14' W 090°59'5 9.6
2018-Jun-17 19:30N 32°17' W 090°56'3 6.3
2018-Jun-17 19:00N 32°20' W 090°55'3 6.5
2018-Jun-17 18:30N 32°21' W 090°59'4 7.5
2018-Jun-17 18:00N 32°25' W 090°60'5 9.3
2018-Jun-17 17:30N 32°27' W 091°05'5 8.3
2018-Jun-17 16:57N 32°31' W 091°06'4 8.8
2018-Jun-17 16:30N 32°35' W 091°07'  

Dump ship's entire track history